Accueil
METAR-TAF:

METAR-TAF

Aéroports :

Londres-Gatwick, Angleterre

Aéroport de Londres-Gatwick

latitude: 51-09N, longitude: 000-11W, altitude: 62 m

Observation

Le bulletin a été fait il y a 19 minutes, à 08:50 UTC
Vent 12 kt de ouest
Température 17°C
Humidité 68%
Pression 1017 hPa
Visibilité 10 km ou plus
Quelques nuages à une hauteur de 2000 ft

METAR: EGKK 190850Z 27012KT 9999 FEW020 17/11 Q1017

Heure: 10:09 (09:09 UTC)

Prévision

Le bulletin a été fait il y a 4 heures et 18 minutes, à 04:51 UTC
Prévision valable du 19 à 06 UTC au 20 à 12 UTC
Vent 12 kt de ouest/sud-ouest
Visibilité 10 km ou plus
Nuages épars à une hauteur de 3500 ft
Probabilité 30% :
Temporairement
du 19 à 11 UTC au 19 à 19 UTC
Vent 15 kt de ouest avec des rafales jusqu'à 25 kt

TAF: EGKK 190451Z 1906/2012 25012KT 9999 SCT035 PROB30 TEMPO 1911/1919 27015G25KT

Observations et prévisions météorologiques de plus de 4000 aéroports (messages METAR et TAF).

Les stations disponibles sont représentées par des disques jaunes et rouges sur la carte.

Passer la souris dessus pour voir le nom de la station.

Cliquer dessus pour voir les observations et prévisions météorologiques.

Pour changer de carte: cliquez sur les boutons verts avec une croix noire pour zoomer, sur le bouton vert avec un tiret pour effectuer un zoom arrière, ou sur les flèches vertes pour les cartes adjacentes.


METAR-TAF: